sensor_id;sensor_type;location;lat;lon;timestamp;P1;durP1;ratioP1;P2;durP2;ratioP2
4353;SDS011;11018;51.258;6.806;2022-10-16T00:00:43;10.32;;;5.72;;
4353;SDS011;11018;51.258;6.806;2022-10-16T00:03:09;13.45;;;5.80;;
4353;SDS011;11018;51.258;6.806;2022-10-16T00:05:39;12.15;;;6.40;;
4353;SDS011;11018;51.258;6.806;2022-10-16T00:08:07;13.38;;;6.43;;
4353;SDS011;11018;51.258;6.806;2022-10-16T00:10:33;9.63;;;6.00;;
4353;SDS011;11018;51.258;6.806;2022-10-16T00:12:59;13.35;;;6.18;;
4353;SDS011;11018;51.258;6.806;2022-10-16T00:15:25;9.80;;;6.00;;
4353;SDS011;11018;51.258;6.806;2022-10-16T00:17:50;10.10;;;6.00;;
4353;SDS011;11018;51.258;6.806;2022-10-16T00:20:16;11.45;;;5.28;;
4353;SDS011;11018;51.258;6.806;2022-10-16T00:22:41;11.80;;;6.00;;
4353;SDS011;11018;51.258;6.806;2022-10-16T00:25:07;8.23;;;5.67;;
4353;SDS011;11018;51.258;6.806;2022-10-16T00:27:33;12.77;;;7.20;;
4353;SDS011;11018;51.258;6.806;2022-10-16T00:29:59;12.93;;;5.73;;
4353;SDS011;11018;51.258;6.806;2022-10-16T00:32:24;11.13;;;5.50;;
4353;SDS011;11018;51.258;6.806;2022-10-16T00:34:50;11.87;;;6.00;;
4353;SDS011;11018;51.258;6.806;2022-10-16T00:37:16;7.67;;;5.10;;
4353;SDS011;11018;51.258;6.806;2022-10-16T00:39:41;9.55;;;6.88;;
4353;SDS011;11018;51.258;6.806;2022-10-16T00:42:09;13.13;;;7.13;;
4353;SDS011;11018;51.258;6.806;2022-10-16T00:44:44;8.73;;;6.20;;
4353;SDS011;11018;51.258;6.806;2022-10-16T00:47:19;12.77;;;6.40;;
4353;SDS011;11018;51.258;6.806;2022-10-16T00:49:46;10.98;;;6.43;;
4353;SDS011;11018;51.258;6.806;2022-10-16T00:52:14;11.40;;;6.45;;
4353;SDS011;11018;51.258;6.806;2022-10-16T00:54:40;9.07;;;6.97;;
4353;SDS011;11018;51.258;6.806;2022-10-16T00:57:06;13.50;;;6.40;;
4353;SDS011;11018;51.258;6.806;2022-10-16T00:59:33;7.82;;;5.38;;
4353;SDS011;11018;51.258;6.806;2022-10-16T01:02:01;10.77;;;6.15;;
4353;SDS011;11018;51.258;6.806;2022-10-16T01:04:28;11.95;;;6.05;;
4353;SDS011;11018;51.258;6.806;2022-10-16T01:07:20;10.95;;;6.57;;
4353;SDS011;11018;51.258;6.806;2022-10-16T01:15:34;5.97;;;4.47;;
4353;SDS011;11018;51.258;6.806;2022-10-16T01:21:05;9.73;;;5.80;;
4353;SDS011;11018;51.258;6.806;2022-10-16T01:29:29;8.68;;;5.47;;
4353;SDS011;11018;51.258;6.806;2022-10-16T01:32:05;7.53;;;4.93;;
4353;SDS011;11018;51.258;6.806;2022-10-16T01:34:54;8.48;;;4.10;;
4353;SDS011;11018;51.258;6.806;2022-10-16T01:37:46;11.38;;;5.65;;
4353;SDS011;11018;51.258;6.806;2022-10-16T01:40:18;8.50;;;4.93;;
4353;SDS011;11018;51.258;6.806;2022-10-16T01:42:50;8.43;;;5.28;;
4353;SDS011;11018;51.258;6.806;2022-10-16T01:45:20;8.27;;;5.63;;
4353;SDS011;11018;51.258;6.806;2022-10-16T01:47:47;6.60;;;4.35;;
4353;SDS011;11018;51.258;6.806;2022-10-16T01:50:14;10.05;;;4.40;;
4353;SDS011;11018;51.258;6.806;2022-10-16T01:52:43;7.30;;;5.50;;
4353;SDS011;11018;51.258;6.806;2022-10-16T01:55:12;4.70;;;3.90;;
4353;SDS011;11018;51.258;6.806;2022-10-16T01:57:42;5.87;;;3.90;;
4353;SDS011;11018;51.258;6.806;2022-10-16T02:00:11;10.93;;;6.43;;
4353;SDS011;11018;51.258;6.806;2022-10-16T02:02:43;6.90;;;4.50;;
4353;SDS011;11018;51.258;6.806;2022-10-16T02:05:14;13.35;;;5.35;;
4353;SDS011;11018;51.258;6.806;2022-10-16T02:07:45;9.98;;;5.13;;
4353;SDS011;11018;51.258;6.806;2022-10-16T02:10:10;8.23;;;4.87;;
4353;SDS011;11018;51.258;6.806;2022-10-16T02:12:36;9.53;;;6.20;;
4353;SDS011;11018;51.258;6.806;2022-10-16T02:15:06;9.20;;;5.25;;
4353;SDS011;11018;51.258;6.806;2022-10-16T02:17:32;8.40;;;6.20;;
4353;SDS011;11018;51.258;6.806;2022-10-16T02:19:57;5.35;;;3.95;;
4353;SDS011;11018;51.258;6.806;2022-10-16T02:22:30;8.10;;;6.03;;
4353;SDS011;11018;51.258;6.806;2022-10-16T02:27:43;9.27;;;4.50;;
4353;SDS011;11018;51.258;6.806;2022-10-16T02:30:42;7.07;;;4.57;;
4353;SDS011;11018;51.258;6.806;2022-10-16T02:33:36;6.30;;;4.68;;
4353;SDS011;11018;51.258;6.806;2022-10-16T02:36:03;5.15;;;4.43;;
4353;SDS011;11018;51.258;6.806;2022-10-16T02:38:29;4.78;;;4.20;;
4353;SDS011;11018;51.258;6.806;2022-10-16T02:40:55;7.17;;;3.60;;
4353;SDS011;11018;51.258;6.806;2022-10-16T02:43:21;9.27;;;4.73;;
4353;SDS011;11018;51.258;6.806;2022-10-16T02:45:47;4.30;;;3.70;;
4353;SDS011;11018;51.258;6.806;2022-10-16T02:48:12;4.50;;;3.28;;
4353;SDS011;11018;51.258;6.806;2022-10-16T02:50:38;3.58;;;3.20;;
4353;SDS011;11018;51.258;6.806;2022-10-16T02:53:03;4.47;;;3.20;;
4353;SDS011;11018;51.258;6.806;2022-10-16T02:55:29;5.00;;;4.20;;
4353;SDS011;11018;51.258;6.806;2022-10-16T02:57:54;5.82;;;3.75;;
4353;SDS011;11018;51.258;6.806;2022-10-16T03:00:20;8.07;;;5.60;;
4353;SDS011;11018;51.258;6.806;2022-10-16T03:02:45;9.37;;;5.83;;
4353;SDS011;11018;51.258;6.806;2022-10-16T03:05:12;4.78;;;3.75;;
4353;SDS011;11018;51.258;6.806;2022-10-16T03:07:38;3.25;;;2.90;;
4353;SDS011;11018;51.258;6.806;2022-10-16T03:10:04;6.07;;;4.80;;
4353;SDS011;11018;51.258;6.806;2022-10-16T03:12:30;4.73;;;4.23;;
4353;SDS011;11018;51.258;6.806;2022-10-16T03:14:55;8.60;;;5.47;;
4353;SDS011;11018;51.258;6.806;2022-10-16T03:17:21;5.20;;;2.67;;
4353;SDS011;11018;51.258;6.806;2022-10-16T03:19:47;5.75;;;3.90;;
4353;SDS011;11018;51.258;6.806;2022-10-16T03:22:13;5.60;;;3.70;;
4353;SDS011;11018;51.258;6.806;2022-10-16T03:24:38;7.27;;;5.50;;
4353;SDS011;11018;51.258;6.806;2022-10-16T03:27:04;6.57;;;3.90;;
4353;SDS011;11018;51.258;6.806;2022-10-16T03:29:30;10.40;;;5.30;;
4353;SDS011;11018;51.258;6.806;2022-10-16T03:31:57;6.78;;;4.40;;
4353;SDS011;11018;51.258;6.806;2022-10-16T03:34:22;5.07;;;3.57;;
4353;SDS011;11018;51.258;6.806;2022-10-16T03:36:48;3.40;;;2.97;;
4353;SDS011;11018;51.258;6.806;2022-10-16T03:39:13;4.18;;;3.33;;
4353;SDS011;11018;51.258;6.806;2022-10-16T03:41:39;3.53;;;2.70;;
4353;SDS011;11018;51.258;6.806;2022-10-16T03:44:05;3.15;;;2.80;;
4353;SDS011;11018;51.258;6.806;2022-10-16T03:46:30;5.03;;;3.65;;
4353;SDS011;11018;51.258;6.806;2022-10-16T03:48:56;3.50;;;3.20;;
4353;SDS011;11018;51.258;6.806;2022-10-16T03:51:21;2.63;;;2.43;;
4353;SDS011;11018;51.258;6.806;2022-10-16T03:53:47;3.73;;;2.60;;
4353;SDS011;11018;51.258;6.806;2022-10-16T03:56:13;4.17;;;3.67;;
4353;SDS011;11018;51.258;6.806;2022-10-16T03:58:38;4.88;;;3.10;;
4353;SDS011;11018;51.258;6.806;2022-10-16T04:01:04;3.28;;;2.97;;
4353;SDS011;11018;51.258;6.806;2022-10-16T04:03:29;5.50;;;3.30;;
4353;SDS011;11018;51.258;6.806;2022-10-16T04:05:55;4.80;;;3.10;;
4353;SDS011;11018;51.258;6.806;2022-10-16T04:08:20;5.10;;;3.60;;
4353;SDS011;11018;51.258;6.806;2022-10-16T04:10:46;5.60;;;2.70;;
4353;SDS011;11018;51.258;6.806;2022-10-16T04:13:12;3.10;;;2.80;;
4353;SDS011;11018;51.258;6.806;2022-10-16T04:15:38;5.95;;;2.80;;
4353;SDS011;11018;51.258;6.806;2022-10-16T04:18:03;6.53;;;3.80;;
4353;SDS011;11018;51.258;6.806;2022-10-16T04:20:29;3.20;;;2.90;;
4353;SDS011;11018;51.258;6.806;2022-10-16T04:22:55;5.57;;;4.50;;
4353;SDS011;11018;51.258;6.806;2022-10-16T04:25:21;6.32;;;3.83;;
4353;SDS011;11018;51.258;6.806;2022-10-16T04:27:46;4.88;;;3.80;;
4353;SDS011;11018;51.258;6.806;2022-10-16T04:30:12;6.60;;;5.00;;
4353;SDS011;11018;51.258;6.806;2022-10-16T04:32:38;4.20;;;2.67;;
4353;SDS011;11018;51.258;6.806;2022-10-16T04:35:04;5.70;;;3.00;;
4353;SDS011;11018;51.258;6.806;2022-10-16T04:37:30;3.08;;;2.88;;
4353;SDS011;11018;51.258;6.806;2022-10-16T04:39:55;3.70;;;3.17;;
4353;SDS011;11018;51.258;6.806;2022-10-16T04:42:21;4.40;;;3.30;;
4353;SDS011;11018;51.258;6.806;2022-10-16T04:44:46;3.67;;;3.08;;
4353;SDS011;11018;51.258;6.806;2022-10-16T04:47:12;7.82;;;4.80;;
4353;SDS011;11018;51.258;6.806;2022-10-16T04:49:38;2.90;;;2.60;;
4353;SDS011;11018;51.258;6.806;2022-10-16T04:52:04;3.17;;;2.80;;
4353;SDS011;11018;51.258;6.806;2022-10-16T04:54:30;4.90;;;2.90;;
4353;SDS011;11018;51.258;6.806;2022-10-16T04:56:55;4.32;;;2.95;;
4353;SDS011;11018;51.258;6.806;2022-10-16T04:59:21;4.47;;;3.08;;
4353;SDS011;11018;51.258;6.806;2022-10-16T05:01:47;6.60;;;3.60;;
4353;SDS011;11018;51.258;6.806;2022-10-16T05:04:13;3.60;;;2.78;;
4353;SDS011;11018;51.258;6.806;2022-10-16T05:06:40;7.18;;;4.10;;
4353;SDS011;11018;51.258;6.806;2022-10-16T05:09:05;5.65;;;2.85;;
4353;SDS011;11018;51.258;6.806;2022-10-16T05:11:31;2.97;;;2.72;;
4353;SDS011;11018;51.258;6.806;2022-10-16T05:13:57;3.95;;;3.55;;
4353;SDS011;11018;51.258;6.806;2022-10-16T05:16:23;3.83;;;3.40;;
4353;SDS011;11018;51.258;6.806;2022-10-16T05:18:48;5.30;;;3.10;;
4353;SDS011;11018;51.258;6.806;2022-10-16T05:21:14;3.40;;;2.83;;
4353;SDS011;11018;51.258;6.806;2022-10-16T05:23:40;4.00;;;3.30;;
4353;SDS011;11018;51.258;6.806;2022-10-16T05:26:05;6.00;;;3.43;;
4353;SDS011;11018;51.258;6.806;2022-10-16T05:28:31;4.70;;;3.00;;
4353;SDS011;11018;51.258;6.806;2022-10-16T05:30:56;4.80;;;3.40;;
4353;SDS011;11018;51.258;6.806;2022-10-16T05:33:24;7.30;;;3.25;;
4353;SDS011;11018;51.258;6.806;2022-10-16T05:35:51;3.30;;;3.00;;
4353;SDS011;11018;51.258;6.806;2022-10-16T05:38:16;2.45;;;2.30;;
4353;SDS011;11018;51.258;6.806;2022-10-16T05:40:42;4.25;;;2.78;;
4353;SDS011;11018;51.258;6.806;2022-10-16T05:43:08;5.75;;;4.07;;
4353;SDS011;11018;51.258;6.806;2022-10-16T05:45:34;2.53;;;2.33;;
4353;SDS011;11018;51.258;6.806;2022-10-16T05:48:00;3.38;;;2.25;;
4353;SDS011;11018;51.258;6.806;2022-10-16T05:50:26;3.55;;;2.28;;
4353;SDS011;11018;51.258;6.806;2022-10-16T05:52:51;3.47;;;2.80;;
4353;SDS011;11018;51.258;6.806;2022-10-16T05:55:17;2.93;;;2.40;;
4353;SDS011;11018;51.258;6.806;2022-10-16T05:57:43;4.03;;;3.22;;
4353;SDS011;11018;51.258;6.806;2022-10-16T06:00:09;3.60;;;3.00;;
4353;SDS011;11018;51.258;6.806;2022-10-16T06:02:35;4.57;;;2.40;;
4353;SDS011;11018;51.258;6.806;2022-10-16T06:05:01;4.30;;;3.90;;
4353;SDS011;11018;51.258;6.806;2022-10-16T06:07:26;4.10;;;3.45;;
4353;SDS011;11018;51.258;6.806;2022-10-16T06:09:52;4.32;;;2.83;;
4353;SDS011;11018;51.258;6.806;2022-10-16T06:12:18;3.42;;;2.90;;
4353;SDS011;11018;51.258;6.806;2022-10-16T06:14:44;4.15;;;3.50;;
4353;SDS011;11018;51.258;6.806;2022-10-16T06:17:11;5.15;;;3.70;;
4353;SDS011;11018;51.258;6.806;2022-10-16T06:19:38;8.35;;;5.57;;
4353;SDS011;11018;51.258;6.806;2022-10-16T06:22:04;7.60;;;3.53;;
4353;SDS011;11018;51.258;6.806;2022-10-16T06:24:29;3.33;;;2.83;;
4353;SDS011;11018;51.258;6.806;2022-10-16T06:26:55;4.10;;;2.80;;
4353;SDS011;11018;51.258;6.806;2022-10-16T06:29:20;4.00;;;2.90;;
4353;SDS011;11018;51.258;6.806;2022-10-16T06:31:46;5.55;;;2.97;;
4353;SDS011;11018;51.258;6.806;2022-10-16T06:34:11;4.40;;;2.90;;
4353;SDS011;11018;51.258;6.806;2022-10-16T06:36:37;3.07;;;2.77;;
4353;SDS011;11018;51.258;6.806;2022-10-16T06:39:04;3.67;;;2.90;;
4353;SDS011;11018;51.258;6.806;2022-10-16T06:41:31;4.03;;;2.90;;
4353;SDS011;11018;51.258;6.806;2022-10-16T06:43:57;5.55;;;4.00;;
4353;SDS011;11018;51.258;6.806;2022-10-16T06:46:23;5.90;;;2.70;;
4353;SDS011;11018;51.258;6.806;2022-10-16T06:48:51;5.88;;;2.90;;
4353;SDS011;11018;51.258;6.806;2022-10-16T06:51:18;3.97;;;3.45;;
4353;SDS011;11018;51.258;6.806;2022-10-16T06:53:46;4.28;;;3.33;;
4353;SDS011;11018;51.258;6.806;2022-10-16T06:56:18;8.27;;;4.45;;
4353;SDS011;11018;51.258;6.806;2022-10-16T06:58:46;4.78;;;3.30;;
4353;SDS011;11018;51.258;6.806;2022-10-16T07:01:12;8.30;;;3.00;;
4353;SDS011;11018;51.258;6.806;2022-10-16T07:03:39;4.25;;;2.78;;
4353;SDS011;11018;51.258;6.806;2022-10-16T07:06:06;6.53;;;4.07;;
4353;SDS011;11018;51.258;6.806;2022-10-16T07:08:34;4.32;;;3.50;;
4353;SDS011;11018;51.258;6.806;2022-10-16T07:11:01;9.45;;;5.38;;
4353;SDS011;11018;51.258;6.806;2022-10-16T07:13:28;6.40;;;2.90;;
4353;SDS011;11018;51.258;6.806;2022-10-16T07:15:54;8.20;;;4.88;;
4353;SDS011;11018;51.258;6.806;2022-10-16T07:18:19;5.37;;;4.20;;
4353;SDS011;11018;51.258;6.806;2022-10-16T07:20:45;4.20;;;3.30;;
4353;SDS011;11018;51.258;6.806;2022-10-16T07:23:11;6.00;;;3.10;;
4353;SDS011;11018;51.258;6.806;2022-10-16T07:25:36;5.20;;;4.27;;
4353;SDS011;11018;51.258;6.806;2022-10-16T07:28:02;11.77;;;6.65;;
4353;SDS011;11018;51.258;6.806;2022-10-16T07:30:27;8.93;;;6.15;;
4353;SDS011;11018;51.258;6.806;2022-10-16T07:32:53;7.37;;;4.40;;
4353;SDS011;11018;51.258;6.806;2022-10-16T07:35:19;6.90;;;4.70;;
4353;SDS011;11018;51.258;6.806;2022-10-16T07:37:45;6.47;;;4.70;;
4353;SDS011;11018;51.258;6.806;2022-10-16T07:40:11;11.43;;;8.82;;
4353;SDS011;11018;51.258;6.806;2022-10-16T07:42:36;9.05;;;6.30;;
4353;SDS011;11018;51.258;6.806;2022-10-16T07:45:02;6.70;;;5.90;;
4353;SDS011;11018;51.258;6.806;2022-10-16T07:47:28;9.25;;;4.50;;
4353;SDS011;11018;51.258;6.806;2022-10-16T07:49:53;4.67;;;3.70;;
4353;SDS011;11018;51.258;6.806;2022-10-16T07:52:19;7.50;;;4.20;;
4353;SDS011;11018;51.258;6.806;2022-10-16T07:54:44;5.15;;;3.10;;
4353;SDS011;11018;51.258;6.806;2022-10-16T07:57:10;5.28;;;3.10;;
4353;SDS011;11018;51.258;6.806;2022-10-16T07:59:35;6.63;;;3.53;;
4353;SDS011;11018;51.258;6.806;2022-10-16T08:02:01;6.37;;;3.60;;
4353;SDS011;11018;51.258;6.806;2022-10-16T08:04:27;3.80;;;3.40;;
4353;SDS011;11018;51.258;6.806;2022-10-16T08:06:52;5.00;;;3.30;;
4353;SDS011;11018;51.258;6.806;2022-10-16T08:09:19;4.60;;;2.93;;
4353;SDS011;11018;51.258;6.806;2022-10-16T08:11:45;6.32;;;3.10;;
4353;SDS011;11018;51.258;6.806;2022-10-16T08:14:10;10.60;;;3.10;;
4353;SDS011;11018;51.258;6.806;2022-10-16T08:16:36;6.50;;;3.00;;
4353;SDS011;11018;51.258;6.806;2022-10-16T08:19:01;6.35;;;2.60;;
4353;SDS011;11018;51.258;6.806;2022-10-16T08:21:27;3.45;;;2.78;;
4353;SDS011;11018;51.258;6.806;2022-10-16T08:23:53;8.30;;;2.80;;
4353;SDS011;11018;51.258;6.806;2022-10-16T08:26:20;6.00;;;2.47;;
4353;SDS011;11018;51.258;6.806;2022-10-16T08:28:45;6.57;;;2.53;;
4353;SDS011;11018;51.258;6.806;2022-10-16T08:31:14;5.15;;;2.20;;
4353;SDS011;11018;51.258;6.806;2022-10-16T08:33:42;4.95;;;2.10;;
4353;SDS011;11018;51.258;6.806;2022-10-16T08:36:09;5.13;;;2.10;;
4353;SDS011;11018;51.258;6.806;2022-10-16T08:38:36;6.72;;;2.22;;
4353;SDS011;11018;51.258;6.806;2022-10-16T08:44:02;2.53;;;2.10;;
4353;SDS011;11018;51.258;6.806;2022-10-16T08:46:47;2.75;;;1.98;;
4353;SDS011;11018;51.258;6.806;2022-10-16T08:49:21;4.30;;;2.55;;
4353;SDS011;11018;51.258;6.806;2022-10-16T08:51:49;8.25;;;2.20;;
4353;SDS011;11018;51.258;6.806;2022-10-16T08:54:22;5.45;;;2.80;;
4353;SDS011;11018;51.258;6.806;2022-10-16T08:57:12;8.00;;;2.50;;
4353;SDS011;11018;51.258;6.806;2022-10-16T08:59:41;3.30;;;1.75;;
4353;SDS011;11018;51.258;6.806;2022-10-16T09:02:16;5.05;;;2.20;;
4353;SDS011;11018;51.258;6.806;2022-10-16T09:07:28;3.53;;;1.60;;
4353;SDS011;11018;51.258;6.806;2022-10-16T09:13:03;3.90;;;1.37;;
4353;SDS011;11018;51.258;6.806;2022-10-16T09:18:37;5.63;;;1.58;;
4353;SDS011;11018;51.258;6.806;2022-10-16T09:21:18;5.93;;;1.40;;
4353;SDS011;11018;51.258;6.806;2022-10-16T09:23:53;4.10;;;1.33;;
4353;SDS011;11018;51.258;6.806;2022-10-16T09:26:23;3.80;;;1.40;;
4353;SDS011;11018;51.258;6.806;2022-10-16T09:28:49;5.25;;;1.30;;
4353;SDS011;11018;51.258;6.806;2022-10-16T09:31:18;5.70;;;1.70;;
4353;SDS011;11018;51.258;6.806;2022-10-16T09:33:47;2.90;;;1.20;;
4353;SDS011;11018;51.258;6.806;2022-10-16T09:36:16;4.82;;;1.33;;
4353;SDS011;11018;51.258;6.806;2022-10-16T09:38:43;4.80;;;1.50;;
4353;SDS011;11018;51.258;6.806;2022-10-16T09:43:41;4.55;;;1.40;;
4353;SDS011;11018;51.258;6.806;2022-10-16T09:48:59;2.85;;;1.40;;
4353;SDS011;11018;51.258;6.806;2022-10-16T09:51:30;5.63;;;1.50;;
4353;SDS011;11018;51.258;6.806;2022-10-16T09:53:59;6.63;;;1.60;;
4353;SDS011;11018;51.258;6.806;2022-10-16T09:56:33;4.40;;;1.67;;
4353;SDS011;11018;51.258;6.806;2022-10-16T09:59:02;3.78;;;1.30;;
4353;SDS011;11018;51.258;6.806;2022-10-16T10:01:36;5.60;;;1.70;;
4353;SDS011;11018;51.258;6.806;2022-10-16T10:04:04;3.08;;;1.23;;
4353;SDS011;11018;51.258;6.806;2022-10-16T10:06:32;3.38;;;1.30;;
4353;SDS011;11018;51.258;6.806;2022-10-16T10:09:06;5.07;;;1.55;;
4353;SDS011;11018;51.258;6.806;2022-10-16T10:14:38;4.43;;;1.50;;
4353;SDS011;11018;51.258;6.806;2022-10-16T10:17:15;5.20;;;1.50;;
4353;SDS011;11018;51.258;6.806;2022-10-16T10:19:46;6.22;;;1.40;;
4353;SDS011;11018;51.258;6.806;2022-10-16T10:22:18;7.72;;;1.60;;
4353;SDS011;11018;51.258;6.806;2022-10-16T10:24:54;7.32;;;1.50;;
4353;SDS011;11018;51.258;6.806;2022-10-16T10:27:20;3.00;;;1.30;;
4353;SDS011;11018;51.258;6.806;2022-10-16T10:30:18;6.18;;;1.40;;
4353;SDS011;11018;51.258;6.806;2022-10-16T10:32:47;6.70;;;1.65;;
4353;SDS011;11018;51.258;6.806;2022-10-16T10:35:42;4.30;;;1.30;;
4353;SDS011;11018;51.258;6.806;2022-10-16T10:38:35;4.30;;;1.30;;
4353;SDS011;11018;51.258;6.806;2022-10-16T10:43:42;3.75;;;1.30;;
4353;SDS011;11018;51.258;6.806;2022-10-16T10:46:13;5.00;;;1.20;;
4353;SDS011;11018;51.258;6.806;2022-10-16T10:48:47;4.45;;;1.80;;
4353;SDS011;11018;51.258;6.806;2022-10-16T10:51:22;5.35;;;1.50;;
4353;SDS011;11018;51.258;6.806;2022-10-16T10:57:00;4.32;;;1.40;;
4353;SDS011;11018;51.258;6.806;2022-10-16T10:59:51;4.13;;;1.35;;
4353;SDS011;11018;51.258;6.806;2022-10-16T11:10:46;3.35;;;1.20;;
4353;SDS011;11018;51.258;6.806;2022-10-16T11:13:31;6.85;;;1.42;;
4353;SDS011;11018;51.258;6.806;2022-10-16T11:16:11;5.35;;;1.40;;
4353;SDS011;11018;51.258;6.806;2022-10-16T11:21:51;4.93;;;1.30;;
4353;SDS011;11018;51.258;6.806;2022-10-16T11:24:30;3.47;;;1.73;;
4353;SDS011;11018;51.258;6.806;2022-10-16T11:27:33;5.32;;;1.63;;
4353;SDS011;11018;51.258;6.806;2022-10-16T11:30:08;3.25;;;1.25;;
4353;SDS011;11018;51.258;6.806;2022-10-16T11:33:04;3.70;;;0.95;;
4353;SDS011;11018;51.258;6.806;2022-10-16T11:35:38;3.72;;;1.40;;
4353;SDS011;11018;51.258;6.806;2022-10-16T11:38:09;3.08;;;1.20;;
4353;SDS011;11018;51.258;6.806;2022-10-16T11:40:40;3.50;;;1.50;;
4353;SDS011;11018;51.258;6.806;2022-10-16T11:43:16;5.57;;;1.60;;
4353;SDS011;11018;51.258;6.806;2022-10-16T11:45:49;3.22;;;1.35;;
4353;SDS011;11018;51.258;6.806;2022-10-16T11:48:33;4.10;;;1.35;;
4353;SDS011;11018;51.258;6.806;2022-10-16T11:51:17;1.67;;;1.10;;
4353;SDS011;11018;51.258;6.806;2022-10-16T11:54:08;4.78;;;1.20;;
4353;SDS011;11018;51.258;6.806;2022-10-16T11:56:51;5.20;;;1.55;;
4353;SDS011;11018;51.258;6.806;2022-10-16T11:59:30;3.47;;;1.08;;
4353;SDS011;11018;51.258;6.806;2022-10-16T12:07:50;5.18;;;1.20;;
4353;SDS011;11018;51.258;6.806;2022-10-16T12:10:38;3.42;;;1.15;;
4353;SDS011;11018;51.258;6.806;2022-10-16T12:13:25;2.58;;;1.00;;
4353;SDS011;11018;51.258;6.806;2022-10-16T12:16:03;3.25;;;1.55;;
4353;SDS011;11018;51.258;6.806;2022-10-16T12:18:45;3.50;;;1.20;;
4353;SDS011;11018;51.258;6.806;2022-10-16T12:21:13;2.75;;;1.20;;
4353;SDS011;11018;51.258;6.806;2022-10-16T12:23:54;3.75;;;1.42;;
4353;SDS011;11018;51.258;6.806;2022-10-16T12:26:29;3.95;;;1.48;;
4353;SDS011;11018;51.258;6.806;2022-10-16T12:29:09;5.93;;;1.20;;
4353;SDS011;11018;51.258;6.806;2022-10-16T12:31:59;2.50;;;1.15;;
4353;SDS011;11018;51.258;6.806;2022-10-16T12:34:33;3.30;;;1.20;;
4353;SDS011;11018;51.258;6.806;2022-10-16T12:37:08;5.53;;;1.30;;
4353;SDS011;11018;51.258;6.806;2022-10-16T12:39:36;8.00;;;1.80;;
4353;SDS011;11018;51.258;6.806;2022-10-16T12:42:03;2.77;;;1.03;;
4353;SDS011;11018;51.258;6.806;2022-10-16T12:44:34;3.60;;;1.40;;
4353;SDS011;11018;51.258;6.806;2022-10-16T12:47:01;6.40;;;1.60;;
4353;SDS011;11018;51.258;6.806;2022-10-16T12:51:53;3.08;;;1.55;;
4353;SDS011;11018;51.258;6.806;2022-10-16T12:54:39;5.60;;;1.70;;
4353;SDS011;11018;51.258;6.806;2022-10-16T13:00:04;5.55;;;1.10;;
4353;SDS011;11018;51.258;6.806;2022-10-16T13:16:49;2.20;;;1.17;;
4353;SDS011;11018;51.258;6.806;2022-10-16T13:25:41;2.65;;;1.10;;
4353;SDS011;11018;51.258;6.806;2022-10-16T13:27:52;2.58;;;1.00;;
4353;SDS011;11018;51.258;6.806;2022-10-16T13:30:20;4.70;;;1.20;;
4353;SDS011;11018;51.258;6.806;2022-10-16T13:32:54;5.25;;;1.50;;
4353;SDS011;11018;51.258;6.806;2022-10-16T13:35:28;3.25;;;1.42;;
4353;SDS011;11018;51.258;6.806;2022-10-16T13:43:45;6.40;;;1.30;;
4353;SDS011;11018;51.258;6.806;2022-10-16T13:46:17;4.05;;;1.00;;
4353;SDS011;11018;51.258;6.806;2022-10-16T13:48:55;2.67;;;1.10;;
4353;SDS011;11018;51.258;6.806;2022-10-16T13:51:22;3.97;;;1.25;;
4353;SDS011;11018;51.258;6.806;2022-10-16T13:53:47;2.47;;;1.00;;
4353;SDS011;11018;51.258;6.806;2022-10-16T13:56:20;2.63;;;1.10;;
4353;SDS011;11018;51.258;6.806;2022-10-16T13:58:57;4.50;;;1.67;;
4353;SDS011;11018;51.258;6.806;2022-10-16T14:01:28;3.80;;;1.20;;
4353;SDS011;11018;51.258;6.806;2022-10-16T14:04:03;3.25;;;1.10;;
4353;SDS011;11018;51.258;6.806;2022-10-16T14:06:30;4.15;;;2.05;;
4353;SDS011;11018;51.258;6.806;2022-10-16T14:11:33;2.80;;;1.33;;
4353;SDS011;11018;51.258;6.806;2022-10-16T14:14:02;2.30;;;1.40;;
4353;SDS011;11018;51.258;6.806;2022-10-16T14:16:29;2.53;;;1.50;;
4353;SDS011;11018;51.258;6.806;2022-10-16T14:19:00;3.03;;;1.40;;
4353;SDS011;11018;51.258;6.806;2022-10-16T14:21:27;4.90;;;1.60;;
4353;SDS011;11018;51.258;6.806;2022-10-16T14:23:54;2.73;;;1.50;;
4353;SDS011;11018;51.258;6.806;2022-10-16T14:26:22;20.25;;;3.78;;
4353;SDS011;11018;51.258;6.806;2022-10-16T14:29:01;7.88;;;2.50;;
4353;SDS011;11018;51.258;6.806;2022-10-16T14:31:35;4.50;;;1.70;;
4353;SDS011;11018;51.258;6.806;2022-10-16T14:34:02;4.10;;;2.28;;
4353;SDS011;11018;51.258;6.806;2022-10-16T14:36:28;5.38;;;2.65;;
4353;SDS011;11018;51.258;6.806;2022-10-16T14:39:02;4.32;;;1.70;;
4353;SDS011;11018;51.258;6.806;2022-10-16T14:41:30;4.47;;;1.75;;
4353;SDS011;11018;51.258;6.806;2022-10-16T14:44:01;5.43;;;1.85;;
4353;SDS011;11018;51.258;6.806;2022-10-16T14:46:30;4.75;;;2.00;;
4353;SDS011;11018;51.258;6.806;2022-10-16T14:51:36;12.07;;;2.10;;
4353;SDS011;11018;51.258;6.806;2022-10-16T14:54:03;19.90;;;3.20;;
4353;SDS011;11018;51.258;6.806;2022-10-16T14:56:30;7.15;;;2.10;;
4353;SDS011;11018;51.258;6.806;2022-10-16T14:59:12;2.78;;;2.00;;
4353;SDS011;11018;51.258;6.806;2022-10-16T15:01:49;4.67;;;2.70;;
4353;SDS011;11018;51.258;6.806;2022-10-16T15:04:14;6.60;;;2.40;;
4353;SDS011;11018;51.258;6.806;2022-10-16T15:06:41;4.72;;;2.30;;
4353;SDS011;11018;51.258;6.806;2022-10-16T15:09:07;4.73;;;1.80;;
4353;SDS011;11018;51.258;6.806;2022-10-16T15:11:32;5.73;;;2.30;;
4353;SDS011;11018;51.258;6.806;2022-10-16T15:13:58;5.55;;;1.80;;
4353;SDS011;11018;51.258;6.806;2022-10-16T15:16:24;5.50;;;3.03;;
4353;SDS011;11018;51.258;6.806;2022-10-16T15:18:49;8.83;;;3.20;;
4353;SDS011;11018;51.258;6.806;2022-10-16T15:21:25;3.30;;;2.13;;
4353;SDS011;11018;51.258;6.806;2022-10-16T15:23:53;6.30;;;2.50;;
4353;SDS011;11018;51.258;6.806;2022-10-16T15:26:21;4.55;;;2.20;;
4353;SDS011;11018;51.258;6.806;2022-10-16T15:28:47;10.10;;;3.80;;
4353;SDS011;11018;51.258;6.806;2022-10-16T15:31:13;10.90;;;3.00;;
4353;SDS011;11018;51.258;6.806;2022-10-16T15:33:38;9.63;;;2.80;;
4353;SDS011;11018;51.258;6.806;2022-10-16T15:36:04;12.07;;;3.83;;
4353;SDS011;11018;51.258;6.806;2022-10-16T15:38:30;9.90;;;3.50;;
4353;SDS011;11018;51.258;6.806;2022-10-16T15:40:56;10.35;;;5.40;;
4353;SDS011;11018;51.258;6.806;2022-10-16T15:43:22;13.93;;;5.60;;
4353;SDS011;11018;51.258;6.806;2022-10-16T15:45:54;9.40;;;4.63;;
4353;SDS011;11018;51.258;6.806;2022-10-16T15:48:28;13.03;;;4.30;;
4353;SDS011;11018;51.258;6.806;2022-10-16T15:50:54;9.13;;;4.30;;
4353;SDS011;11018;51.258;6.806;2022-10-16T15:53:20;7.43;;;3.10;;
4353;SDS011;11018;51.258;6.806;2022-10-16T15:55:45;20.63;;;5.10;;
4353;SDS011;11018;51.258;6.806;2022-10-16T15:58:11;9.65;;;3.17;;
4353;SDS011;11018;51.258;6.806;2022-10-16T16:00:36;23.60;;;3.83;;
4353;SDS011;11018;51.258;6.806;2022-10-16T16:03:03;20.25;;;4.50;;
4353;SDS011;11018;51.258;6.806;2022-10-16T16:05:29;12.73;;;4.28;;
4353;SDS011;11018;51.258;6.806;2022-10-16T16:07:54;12.47;;;4.50;;
4353;SDS011;11018;51.258;6.806;2022-10-16T16:10:20;10.93;;;2.97;;
4353;SDS011;11018;51.258;6.806;2022-10-16T16:12:46;10.25;;;3.70;;
4353;SDS011;11018;51.258;6.806;2022-10-16T16:15:17;26.83;;;5.90;;
4353;SDS011;11018;51.258;6.806;2022-10-16T16:17:46;20.92;;;5.65;;
4353;SDS011;11018;51.258;6.806;2022-10-16T16:20:12;22.30;;;4.53;;
4353;SDS011;11018;51.258;6.806;2022-10-16T16:22:38;8.83;;;3.67;;
4353;SDS011;11018;51.258;6.806;2022-10-16T16:25:03;21.08;;;4.82;;
4353;SDS011;11018;51.258;6.806;2022-10-16T16:27:29;12.13;;;3.90;;
4353;SDS011;11018;51.258;6.806;2022-10-16T16:29:58;9.48;;;2.90;;
4353;SDS011;11018;51.258;6.806;2022-10-16T16:32:24;14.88;;;3.20;;
4353;SDS011;11018;51.258;6.806;2022-10-16T16:34:50;7.05;;;3.10;;
4353;SDS011;11018;51.258;6.806;2022-10-16T16:37:16;7.43;;;3.10;;
4353;SDS011;11018;51.258;6.806;2022-10-16T16:39:42;9.43;;;3.10;;
4353;SDS011;11018;51.258;6.806;2022-10-16T16:42:07;8.55;;;3.80;;
4353;SDS011;11018;51.258;6.806;2022-10-16T16:44:34;9.02;;;3.70;;
4353;SDS011;11018;51.258;6.806;2022-10-16T16:47:01;12.00;;;3.60;;
4353;SDS011;11018;51.258;6.806;2022-10-16T16:49:27;8.73;;;4.28;;